Time,TemperatureF,DewpointF,PressureIn,WindDirection,WindDirectionDegrees,WindSpeedMPH,WindSpeedGustMPH,Humidity,HourlyPrecipIn,Conditions,Clouds,dailyrainin,SoftwareType,DateUTC
2013-02-09 00:02:00,2.0,-2.0,30.33,NNE,26,0.0,0.0,82,0.00,,,0.00,,2013-02-09 05:02:00,
2013-02-09 00:12:00,2.0,-2.0,30.33,NNE,26,0.0,0.0,82,0.00,,,0.00,,2013-02-09 05:12:00,
2013-02-09 00:22:00,2.0,-2.0,30.33,NNE,26,0.0,0.0,82,0.00,,,0.00,,2013-02-09 05:22:00,
2013-02-09 00:32:00,1.0,-3.0,30.32,NNE,26,0.0,0.0,82,0.00,,,0.00,,2013-02-09 05:32:00,
2013-02-09 00:42:00,1.0,-3.0,30.32,NNE,26,0.0,0.0,82,0.00,,,0.00,,2013-02-09 05:42:00,
2013-02-09 00:52:00,0.0,-4.0,30.32,NNE,26,0.0,0.0,82,0.00,,,0.00,,2013-02-09 05:52:00,
2013-02-09 01:21:00,-1.0,-5.0,30.33,NNE,26,0.0,0.0,81,0.00,,,0.00,,2013-02-09 06:21:00,
2013-02-09 01:32:00,-2.0,-7.0,30.34,NNE,26,0.0,0.0,80,0.00,,,0.00,,2013-02-09 06:32:00,
2013-02-09 01:42:00,-2.0,-7.0,30.34,NNE,26,0.0,0.0,80,0.00,,,0.00,,2013-02-09 06:42:00,
2013-02-09 01:52:00,-2.0,-6.0,30.35,NNE,26,0.0,0.0,82,0.00,,,0.00,,2013-02-09 06:52:00,
2013-02-09 02:01:00,-1.0,-5.0,30.35,NNE,26,0.0,0.0,83,0.00,,,0.00,,2013-02-09 07:01:00,
2013-02-09 02:11:00,-1.0,-5.0,30.35,NNE,26,0.0,0.0,83,0.00,,,0.00,,2013-02-09 07:11:00,
2013-02-09 02:21:00,-1.0,-5.0,30.34,NNE,26,0.0,0.0,82,0.00,,,0.00,,2013-02-09 07:21:00,
2013-02-09 02:31:00,-2.0,-6.0,30.35,NNE,26,0.0,0.0,82,0.00,,,0.00,,2013-02-09 07:31:00,
2013-02-09 02:42:00,-2.0,-6.0,30.35,NNE,26,0.0,0.0,82,0.00,,,0.00,,2013-02-09 07:42:00,
2013-02-09 02:52:00,-3.0,-8.0,30.35,NE,36,0.0,0.0,80,0.00,,,0.00,,2013-02-09 07:52:00,
2013-02-09 03:01:00,-3.0,-8.0,30.35,South,173,0.0,0.0,80,0.00,,,0.00,,2013-02-09 08:01:00,
2013-02-09 03:11:00,-3.0,-8.0,30.35,South,173,0.0,0.0,80,0.00,,,0.00,,2013-02-09 08:11:00,
2013-02-09 03:21:00,-3.0,-8.0,30.35,South,173,0.0,0.0,79,0.00,,,0.00,,2013-02-09 08:21:00,
2013-02-09 03:31:00,-4.0,-9.0,30.34,South,173,0.0,0.0,78,0.00,,,0.00,,2013-02-09 08:31:00,
2013-02-09 03:42:00,-4.0,-9.0,30.34,South,173,0.0,0.0,78,0.00,,,0.00,,2013-02-09 08:42:00,
2013-02-09 03:52:00,-5.0,-10.0,30.34,South,173,0.0,0.0,79,0.00,,,0.00,,2013-02-09 08:52:00,
2013-02-09 04:03:00,-5.0,-10.0,30.34,South,173,0.0,0.0,79,0.00,,,0.00,,2013-02-09 09:03:00,
2013-02-09 04:11:00,-5.0,-10.0,30.34,South,173,0.0,0.0,79,0.00,,,0.00,,2013-02-09 09:11:00,
2013-02-09 04:21:00,-5.0,-10.0,30.34,South,173,0.0,0.0,79,0.00,,,0.00,,2013-02-09 09:21:00,
2013-02-09 04:32:00,-6.0,-11.0,30.34,South,173,0.0,0.0,78,0.00,,,0.00,,2013-02-09 09:32:00,
2013-02-09 04:42:00,-6.0,-11.0,30.34,South,173,0.0,0.0,78,0.00,,,0.00,,2013-02-09 09:42:00,
2013-02-09 04:52:00,-6.0,-11.0,30.35,South,173,0.0,0.0,78,0.00,,,0.00,,2013-02-09 09:52:00,
2013-02-09 05:01:00,-6.0,-11.0,30.35,South,173,0.0,0.0,78,0.00,,,0.00,,2013-02-09 10:01:00,
2013-02-09 05:11:00,-6.0,-11.0,30.35,South,173,0.0,0.0,78,0.00,,,0.00,,2013-02-09 10:11:00,
2013-02-09 05:21:00,-6.0,-11.0,30.34,South,173,0.0,0.0,78,0.00,,,0.00,,2013-02-09 10:21:00,
2013-02-09 05:32:00,-7.0,-12.0,30.34,South,173,0.0,0.0,78,0.00,,,0.00,,2013-02-09 10:32:00,
2013-02-09 05:42:00,-7.0,-12.0,30.34,South,173,0.0,0.0,78,0.00,,,0.00,,2013-02-09 10:42:00,
2013-02-09 05:52:00,-7.0,-12.0,30.35,South,173,0.0,0.0,78,0.00,,,0.00,,2013-02-09 10:52:00,
2013-02-09 06:01:00,-7.0,-12.0,30.36,South,173,0.0,0.0,77,0.00,,,0.00,,2013-02-09 11:01:00,
2013-02-09 06:11:00,-7.0,-12.0,30.36,South,173,0.0,0.0,77,0.00,,,0.00,,2013-02-09 11:11:00,
2013-02-09 06:22:00,-8.0,-14.0,30.35,South,173,0.0,0.0,76,0.00,,,0.00,,2013-02-09 11:22:00,
2013-02-09 06:32:00,-8.0,-14.0,30.34,South,173,0.0,0.0,76,0.00,,,0.00,,2013-02-09 11:32:00,
2013-02-09 06:42:00,-8.0,-14.0,30.34,South,173,0.0,0.0,76,0.00,,,0.00,,2013-02-09 11:42:00,
2013-02-09 06:52:00,-8.0,-13.0,30.35,South,173,0.0,0.0,77,0.00,,,0.00,,2013-02-09 11:52:00,
2013-02-09 07:02:00,-8.0,-13.0,30.35,South,173,0.0,0.0,77,0.00,,,0.00,,2013-02-09 12:02:00,
2013-02-09 07:11:00,-8.0,-13.0,30.35,South,173,0.0,0.0,77,0.00,,,0.00,,2013-02-09 12:11:00,
2013-02-09 07:22:00,-9.0,-14.0,30.34,South,173,0.0,0.0,77,0.00,,,0.00,,2013-02-09 12:22:00,
2013-02-09 07:32:00,-9.0,-14.0,30.35,South,173,0.0,0.0,76,0.00,,,0.00,,2013-02-09 12:32:00,
2013-02-09 07:42:00,-9.0,-14.0,30.35,South,173,0.0,0.0,76,0.00,,,0.00,,2013-02-09 12:42:00,
2013-02-09 07:52:00,-10.0,-15.0,30.35,South,173,0.0,0.0,76,0.00,,,0.00,,2013-02-09 12:52:00,
2013-02-09 08:02:00,-10.0,-15.0,30.35,South,173,0.0,0.0,77,0.00,,,0.00,,2013-02-09 13:02:00,
2013-02-09 08:11:00,-10.0,-15.0,30.35,South,173,0.0,0.0,77,0.00,,,0.00,,2013-02-09 13:11:00,
2013-02-09 08:22:00,-10.0,-15.0,30.35,South,173,0.0,0.0,77,0.00,,,0.00,,2013-02-09 13:22:00,
2013-02-09 08:32:00,-10.0,-15.0,30.35,South,173,0.0,0.0,77,0.00,,,0.00,,2013-02-09 13:32:00,
2013-02-09 08:42:00,-10.0,-15.0,30.35,South,173,0.0,0.0,77,0.00,,,0.00,,2013-02-09 13:42:00,
2013-02-09 08:52:00,-10.0,-15.0,30.34,South,173,0.0,0.0,76,0.00,,,0.00,,2013-02-09 13:52:00,
2013-02-09 09:01:00,-9.0,-14.0,30.35,South,173,0.0,0.0,77,0.00,,,0.00,,2013-02-09 14:01:00,
2013-02-09 09:11:00,-9.0,-14.0,30.35,South,173,0.0,0.0,77,0.00,,,0.00,,2013-02-09 14:11:00,
2013-02-09 09:21:00,-9.0,-14.0,30.35,South,173,0.0,0.0,77,0.00,,,0.00,,2013-02-09 14:21:00,
2013-02-09 09:32:00,-6.0,-11.0,30.34,South,173,0.0,0.0,79,0.00,,,0.00,,2013-02-09 14:32:00,
2013-02-09 09:42:00,-6.0,-11.0,30.34,South,173,0.0,0.0,79,0.00,,,0.00,,2013-02-09 14:42:00,
2013-02-09 09:52:00,-4.0,-9.0,30.34,South,173,0.0,0.0,77,0.00,,,0.00,,2013-02-09 14:52:00,
2013-02-09 10:02:00,-3.0,-8.0,30.34,South,173,0.0,0.0,78,0.00,,,0.00,,2013-02-09 15:02:00,
2013-02-09 10:11:00,-3.0,-8.0,30.34,South,173,0.0,0.0,78,0.00,,,0.00,,2013-02-09 15:11:00,
2013-02-09 10:21:00,-1.0,-6.0,30.33,South,173,0.0,0.0,78,0.00,,,0.00,,2013-02-09 15:21:00,
2013-02-09 10:32:00,1.0,-4.0,30.33,South,182,0.0,0.0,78,0.00,,,0.00,,2013-02-09 15:32:00,
2013-02-09 10:42:00,1.0,-4.0,30.33,South,182,0.0,0.0,78,0.00,,,0.00,,2013-02-09 15:42:00,
2013-02-09 10:52:00,8.0,4.0,30.33,South,186,0.0,0.0,83,0.00,,,0.00,,2013-02-09 15:52:00,
2013-02-09 11:01:00,11.0,6.0,30.33,SW,233,0.0,0.0,81,0.00,,,0.00,,2013-02-09 16:01:00,
2013-02-09 11:11:00,11.0,6.0,30.33,SW,233,0.0,0.0,81,0.00,,,0.00,,2013-02-09 16:11:00,
2013-02-09 11:22:00,15.0,10.0,30.32,South,171,0.0,0.0,80,0.00,,,0.00,,2013-02-09 16:22:00,
2013-02-09 11:32:00,18.0,11.0,30.31,SSW,193,0.0,0.0,75,0.00,,,0.00,,2013-02-09 16:32:00,
2013-02-09 11:42:00,18.0,11.0,30.31,SSW,193,0.0,0.0,75,0.00,,,0.00,,2013-02-09 16:42:00,
2013-02-09 11:52:00,20.0,12.0,30.31,SSW,201,0.0,0.0,71,0.00,,,0.00,,2013-02-09 16:52:00,
2013-02-09 12:01:00,21.0,12.0,30.30,SSW,199,0.0,0.0,69,0.00,,,0.00,,2013-02-09 17:01:00,
2013-02-09 12:11:00,21.0,12.0,30.30,SSW,199,0.0,0.0,69,0.00,,,0.00,,2013-02-09 17:11:00,
2013-02-09 12:21:00,23.0,13.0,30.30,SSW,206,0.0,0.0,66,0.00,,,0.00,,2013-02-09 17:21:00,
2013-02-09 12:32:00,25.0,14.0,30.29,SW,220,0.0,0.0,63,0.00,,,0.00,,2013-02-09 17:32:00,
2013-02-09 12:42:00,25.0,14.0,30.29,SW,220,0.0,0.0,63,0.00,,,0.00,,2013-02-09 17:42:00,
2013-02-09 12:52:00,26.0,14.0,30.28,South,186,0.0,0.0,61,0.00,,,0.00,,2013-02-09 17:52:00,
2013-02-09 13:01:00,28.0,14.0,30.26,SSW,192,0.0,0.0,56,0.00,,,0.00,,2013-02-09 18:01:00,
2013-02-09 13:02:00,27.0,14.0,30.26,SSW,204,0.0,0.0,58,0.00,,,0.00,,2013-02-09 18:02:00,
2013-02-09 13:12:00,27.0,14.0,30.26,SSW,204,0.0,0.0,58,0.00,,,0.00,,2013-02-09 18:12:00,
2013-02-09 13:23:00,28.0,14.0,30.26,SSW,192,0.0,0.0,56,0.00,,,0.00,,2013-02-09 18:23:00,
2013-02-09 13:32:00,28.0,14.0,30.26,SSW,192,0.0,0.0,56,0.00,,,0.00,,2013-02-09 18:32:00,
2013-02-09 13:42:00,28.0,14.0,30.26,SSW,192,0.0,0.0,56,0.00,,,0.00,,2013-02-09 18:42:00,
2013-02-09 13:52:00,28.0,14.0,30.26,SSW,192,0.0,0.0,56,0.00,,,0.00,,2013-02-09 18:52:00,
2013-02-09 17:32:00,31.0,14.0,30.18,SSW,198,0.0,0.0,49,0.00,,,0.01,,2013-02-09 22:32:00,
2013-02-09 17:42:00,31.0,14.0,30.18,SSW,198,0.0,0.0,49,0.00,,,0.01,,2013-02-09 22:42:00,
2013-02-09 17:52:00,30.0,13.0,30.17,SSW,204,0.0,0.0,49,0.00,,,0.01,,2013-02-09 22:52:00,
2013-02-09 18:02:00,29.0,14.0,30.17,SSW,211,0.0,0.0,52,0.00,,,0.01,,2013-02-09 23:02:00,
2013-02-09 18:11:00,29.0,14.0,30.17,SSW,211,0.0,0.0,52,0.00,,,0.01,,2013-02-09 23:11:00,
2013-02-09 18:21:00,28.0,14.0,30.17,SSW,207,0.0,0.0,55,0.00,,,0.01,,2013-02-09 23:21:00,
2013-02-09 18:32:00,26.0,13.0,30.17,SSW,207,0.0,0.0,58,0.00,,,0.01,,2013-02-09 23:32:00,
2013-02-09 18:42:00,26.0,13.0,30.17,SSW,207,0.0,0.0,58,0.00,,,0.01,,2013-02-09 23:42:00,
2013-02-09 18:52:00,25.0,13.0,30.18,SSW,207,0.0,0.0,60,0.00,,,0.01,,2013-02-09 23:52:00,
2013-02-09 19:02:00,24.0,13.0,30.17,SSW,194,0.0,0.0,63,0.00,,,0.01,,2013-02-10 00:02:00,
2013-02-09 19:12:00,24.0,13.0,30.17,SSW,194,0.0,0.0,63,0.00,,,0.01,,2013-02-10 00:12:00,
2013-02-09 19:22:00,23.0,13.0,30.17,SW,219,0.0,0.0,64,0.00,,,0.01,,2013-02-10 00:22:00,
2013-02-09 19:32:00,22.0,13.0,30.17,SSW,197,0.0,0.0,67,0.00,,,0.01,,2013-02-10 00:32:00,
2013-02-09 19:42:00,22.0,13.0,30.17,SSW,197,0.0,0.0,67,0.00,,,0.01,,2013-02-10 00:42:00,
2013-02-09 19:52:00,22.0,14.0,30.16,SSW,197,0.0,0.0,70,0.00,,,0.01,,2013-02-10 00:52:00,
2013-02-09 20:01:00,24.0,15.0,30.16,SSW,205,0.0,0.0,67,0.00,,,0.01,,2013-02-10 01:01:00,
2013-02-09 20:12:00,24.0,15.0,30.16,SSW,205,0.0,0.0,67,0.00,,,0.01,,2013-02-10 01:12:00,
2013-02-09 20:22:00,24.0,14.0,30.16,SSW,192,0.0,0.0,66,0.00,,,0.01,,2013-02-10 01:22:00,
2013-02-09 20:32:00,23.0,14.0,30.16,SSW,210,0.0,0.0,67,0.00,,,0.01,,2013-02-10 01:32:00,
2013-02-09 20:42:00,23.0,14.0,30.16,SSW,210,0.0,0.0,67,0.00,,,0.01,,2013-02-10 01:42:00,
2013-02-09 20:52:00,23.0,13.0,30.16,SSW,202,0.0,0.0,66,0.00,,,0.01,,2013-02-10 01:52:00,
2013-02-09 21:01:00,23.0,13.0,30.15,SW,219,0.0,0.0,66,0.00,,,0.01,,2013-02-10 02:01:00,
2013-02-09 21:11:00,23.0,13.0,30.15,SW,219,0.0,0.0,66,0.00,,,0.01,,2013-02-10 02:11:00,
2013-02-09 21:22:00,23.0,14.0,30.15,SSW,211,0.0,0.0,67,0.00,,,0.01,,2013-02-10 02:22:00,
2013-02-09 21:32:00,23.0,14.0,30.15,SSW,211,0.0,0.0,67,0.00,,,0.01,,2013-02-10 02:32:00,
2013-02-09 21:42:00,23.0,14.0,30.15,SSW,211,0.0,0.0,67,0.00,,,0.01,,2013-02-10 02:42:00,
2013-02-09 21:52:00,23.0,14.0,30.15,SSW,211,0.0,0.0,67,0.00,,,0.01,,2013-02-10 02:52:00,